FMMI/TNR METAR and TAF weather

Enter ICAO airport designator
Station Type Date Time Source
FMMI METAR 2020/11/27 14:30 UTC NOAA

FMMI 271430Z 19007KT 9999 BKN023CB 27/15 Q1017 TEMPO TS


Station Type Date Time Source
FMMI Decoded METAR 2020/11/27 14:30 UTC NOAA

Antananarivo / Ivato, Madagascar (FMMI) 18-48S 047-29E 1276M
Nov 27, 2020 - 09:30 AM EST / 2020.11.27 1430 UTC
Wind: from the S (190 degrees) at 8 MPH (7 KT):0
Visibility: greater than 7 mile(s):0
Sky conditions: mostly cloudy
Weather: Cumulonimbus clouds observed
Temperature: 80 F (27 C)
Dew Point: 59 F (15 C)
Relative Humidity: 47%
Pressure (altimeter): 30.03 in. Hg (1017 hPa)
ob: FMMI 271430Z 19007KT 9999 BKN023CB 27/15 Q1017 TEMPO TS
cycle: 14

Station Type Date Time Source
FMMI TAF 2020/11/27 12:12 UTC NOAA

TAF TAF FMMI 271100Z 2712/2818 VRB05KT 9999 SCT020
BECMG 2713/2715 SCT020CB PROB30
TEMPO 2714/2718 TS
BECMG 2718/2720 FEW017 SCT020
BECMG 2809/2812 SCT020CB

Example: see airport list